Highgate Center, Vermont
Current Conditions -  °F | °C
As of 9:55 AM on Sunday 28 Dec 2014 (Local Time) from KFSO Reporting Station
Overcast Overcast  
Wind Chill: 36°   Ceiling: 2800
Heat Index: 40°   Visibility: 10mi
Dew Point: 33°   Wind: 7mph
Humidity: 74%   Direction: 290°WNW
Pressure: 29.8"   Gusts: NA
Location:  44.94°N, 73.04°W
Report Text: KFSO 281455Z AUTO 29006KT 10SM BKN028 OVC034 05/00 A2980 RMK AO2 T00460003
Loading
Personal Weather Stations






























Interactive Weather Map New forecast layout! Learn more

10-Day Weather Forecast

Advertisements
Track Severe Weather on mobile